Aeroporto :
LOGIN :

Iscrizione | Disclaimer

   EN    FR    IT 

 










Sommario :    VFR   VFR Marginale   IFR   IFR Intensivo   IFR Molto Intensivo
Visibilità : 
Base nubi : 
>= 8 km
>= 3000ft
5 / 8 km
1000 / 3000 ft
1500m / 5 km
500 / 1000 ft
800 / 1500m
200 / 500 ft
< 800m
< 200 ft
Simboli :   Temporali  Nebbia  Neve Forte  Precipitazioni Forti  Vento > 20 kt
SIGMETs :   Varie  Temporali  Ghiacco  Turbolenza  Onda orograficha  Ceneri Vulcaniche







- Altitudine del aeroporto : 1058 ft
- Codice IATA : SCN


EDDR - Saarbrücken

ULTIMO METAR :
  • 250820Z VRB02KT 4200 BR SCT004 17/15 Q1019 BECMG 6000

METARs OBSOLETI :
  • 250750Z VRB02KT 3800 BR BKN004 16/15 Q1019 BECMG 6000 SCT002
  • 250720Z 07003KT 340V100 2300 BR BKN002 15/14 Q1019 BECMG 6000 SCT002
  • 250650Z VRB02KT 1600 R09/0750VP2000N BR BKN001 15/14 Q1019 BECMG 6000 SCT001
  • 250620Z 09003KT 020V140 0800 R09/0550V1800U FG BKN001 14/14 Q1018 BECMG 4000 BR SCT001
  • 250550Z VRB02KT 0250 R09/0400V0650N FG BKN001 13/13 Q1018 BECMG 0800 SCT001

TAF TAF EDDR
Valido dal 25 a 06 ore il 26 a 06 ore UTC


250500Z 2506/2606 VRB03KT 0200 FG BKN001
BECMG 2506/2507 4000 BR SCT005
BECMG 2507/2509 CAVOK
BECMG 2514/2517 05006KT
Nessun NOTAM noto per questo aeroporto.



MetMap, La meteo Aeronautica in un colpo d'occhio ! - Copyright ORBIFLY Dicembre 2007 - Disclaimer

ORBIFLY MET'MAP TEAM :

Programmazione e sviluppo : Alexandra Zaïnal
Concezione e sviluppo : Baudouin d'Aumeries
Co-Programmazione e sviluppo : Marc-Olivier Méhu
Supporto tecnico e logistico : Manuel Goepfert
Aiuto per la traduzione : Arnaldo La Scala

Contatto : metmap@orbifly.com




FONTI E CREDITI :

   NOAA